Time;durP1;ratioP1;P1;durP2;ratioP2;P2;SDS_P1;SDS_P2;PMS_P1;PMS_P2;Temp;Humidity;BMP_temperature;BMP_pressure;BME280_temperature;BME280_humidity;BME280_pressure;Samples;Min_cycle;Max_cycle;Signal;HPM_P1;HPM_P2
2023/08/26 00:00:02;;;;;;;3.92;2.40;;;;;;;;;;5081385;28;20509;-73
2023/08/26 00:02:38;;;;;;;2.75;1.52;;;;;;;;;;5087206;28;20055;-74
2023/08/26 00:05:11;;;;;;;2.10;1.33;;;;;;;;;;5081166;28;20392;-73
2023/08/26 00:07:42;;;;;;;3.00;1.10;;;;;;;;;;5081746;28;20052;-73
2023/08/26 00:10:12;;;;;;;4.60;2.33;;;;;;;;;;5080554;28;20052;-72
2023/08/26 00:12:48;;;;;;;6.40;1.92;;;;;;;;;;5079057;28;20397;-76
2023/08/26 00:15:19;;;;;;;1.02;0.75;;;;;;;;;;5074415;28;20067;-73
2023/08/26 00:17:50;;;;;;;5.93;2.38;;;;;;;;;;5069745;28;20048;-73
2023/08/26 00:20:24;;;;;;;5.68;1.58;;;;;;;;;;5070323;28;20049;-74
2023/08/26 00:22:55;;;;;;;10.07;1.83;;;;;;;;;;5071645;28;20049;-74
2023/08/26 00:25:27;;;;;;;3.33;1.48;;;;;;;;;;5074911;28;20510;-76
2023/08/26 00:27:58;;;;;;;2.03;1.08;;;;;;;;;;5065226;28;20044;-73
2023/08/26 00:30:28;;;;;;;3.67;1.27;;;;;;;;;;5065469;28;20075;-73
2023/08/26 00:32:59;;;;;;;8.32;1.30;;;;;;;;;;5065314;28;20052;-73
2023/08/26 00:35:31;;;;;;;4.95;1.35;;;;;;;;;;5066488;28;20393;-73
2023/08/26 00:38:03;;;;;;;3.83;1.08;;;;;;;;;;5063727;28;20059;-73
2023/08/26 00:40:37;;;;;;;2.83;1.48;;;;;;;;;;5065299;28;20041;-73
2023/08/26 00:43:09;;;;;;;3.20;0.90;;;;;;;;;;5063984;28;20049;-72
2023/08/26 00:45:44;;;;;;;1.95;1.08;;;;;;;;;;5064936;28;20059;-73
2023/08/26 00:48:16;;;;;;;2.80;1.25;;;;;;;;;;5062721;28;20400;-73
2023/08/26 00:50:50;;;;;;;3.72;1.10;;;;;;;;;;5062699;28;20511;-72
2023/08/26 00:53:23;;;;;;;3.15;1.45;;;;;;;;;;5063190;28;20055;-73
2023/08/26 00:55:54;;;;;;;6.43;2.38;;;;;;;;;;5063717;28;20044;-73
2023/08/26 00:58:26;;;;;;;3.63;2.28;;;;;;;;;;5064863;28;20048;-73
2023/08/26 01:00:57;;;;;;;2.55;1.38;;;;;;;;;;5064567;28;20838;-72
2023/08/26 01:03:29;;;;;;;3.80;1.65;;;;;;;;;;5063276;28;20622;-73
2023/08/26 01:06:01;;;;;;;2.08;1.20;;;;;;;;;;5063678;28;20064;-73
2023/08/26 01:08:33;;;;;;;6.35;1.45;;;;;;;;;;5065123;28;20059;-73
2023/08/26 01:11:09;;;;;;;5.47;1.63;;;;;;;;;;5065315;28;20057;-72
2023/08/26 01:13:59;;;;;;;2.65;1.10;;;;;;;;;;5063544;28;20063;-73
2023/08/26 01:16:33;;;;;;;5.93;1.50;;;;;;;;;;5063623;28;20052;-73
2023/08/26 01:19:16;;;;;;;1.83;0.90;;;;;;;;;;5062596;28;20053;-73
2023/08/26 01:21:51;;;;;;;2.35;1.25;;;;;;;;;;5062209;28;20056;-73
2023/08/26 01:24:23;;;;;;;4.97;1.10;;;;;;;;;;5062833;28;20045;-73
2023/08/26 01:26:54;;;;;;;8.15;0.95;;;;;;;;;;5063151;28;20056;-73
2023/08/26 01:29:25;;;;;;;3.83;0.95;;;;;;;;;;5064230;28;20052;-73
2023/08/26 01:32:21;;;;;;;4.57;1.00;;;;;;;;;;5064281;28;20052;-73
2023/08/26 01:34:59;;;;;;;2.17;0.70;;;;;;;;;;5057947;28;20866;-73
2023/08/26 01:37:31;;;;;;;1.55;0.65;;;;;;;;;;5062931;28;20131;-73
2023/08/26 01:40:06;;;;;;;3.38;1.00;;;;;;;;;;5062833;28;20987;-73
2023/08/26 01:42:37;;;;;;;3.00;0.93;;;;;;;;;;5064273;28;20063;-73
2023/08/26 01:45:11;;;;;;;3.08;0.90;;;;;;;;;;5064586;28;20051;-73
2023/08/26 01:47:45;;;;;;;2.58;1.10;;;;;;;;;;5062621;28;20052;-73
2023/08/26 01:50:16;;;;;;;2.10;1.00;;;;;;;;;;5062660;28;20048;-74
2023/08/26 01:52:49;;;;;;;2.40;1.10;;;;;;;;;;5063513;28;20495;-73
2023/08/26 01:55:20;;;;;;;7.18;1.30;;;;;;;;;;5061803;28;20040;-73
2023/08/26 01:57:51;;;;;;;1.92;0.90;;;;;;;;;;5061735;28;20052;-73
2023/08/26 02:00:23;;;;;;;1.33;0.80;;;;;;;;;;5062203;28;20063;-73
2023/08/26 02:02:54;;;;;;;1.85;0.73;;;;;;;;;;5065464;28;20671;-73
2023/08/26 02:05:25;;;;;;;2.83;1.02;;;;;;;;;;5062506;28;20561;-73
2023/08/26 02:07:58;;;;;;;2.53;0.50;;;;;;;;;;5063628;28;20059;-73
2023/08/26 02:10:29;;;;;;;5.50;1.10;;;;;;;;;;5061348;28;20048;-73
2023/08/26 02:13:00;;;;;;;7.60;0.95;;;;;;;;;;5061460;28;20056;-73
2023/08/26 02:15:34;;;;;;;7.63;1.20;;;;;;;;;;5063734;28;20051;-73
2023/08/26 02:18:06;;;;;;;3.53;1.48;;;;;;;;;;5062369;28;20052;-73
2023/08/26 02:20:40;;;;;;;2.58;1.00;;;;;;;;;;5061793;28;20442;-73
2023/08/26 02:23:11;;;;;;;2.35;1.05;;;;;;;;;;5063700;28;20538;-73
2023/08/26 02:25:43;;;;;;;2.47;1.30;;;;;;;;;;5062013;28;20055;-73
2023/08/26 02:28:14;;;;;;;1.83;1.30;;;;;;;;;;5062675;28;20068;-73
2023/08/26 02:30:45;;;;;;;5.07;1.48;;;;;;;;;;5063845;28;20044;-73
2023/08/26 02:33:16;;;;;;;4.53;1.75;;;;;;;;;;5061468;28;20056;-73
2023/08/26 02:35:50;;;;;;;6.40;1.42;;;;;;;;;;5062870;28;20072;-73
2023/08/26 02:38:22;;;;;;;3.05;1.65;;;;;;;;;;5061896;28;20056;-73
2023/08/26 02:40:53;;;;;;;3.28;1.98;;;;;;;;;;5061074;28;20056;-73
2023/08/26 02:43:24;;;;;;;4.95;2.20;;;;;;;;;;5062558;28;20407;-73
2023/08/26 02:45:58;;;;;;;3.50;1.65;;;;;;;;;;5061227;28;20060;-73
2023/08/26 02:48:30;;;;;;;3.88;1.98;;;;;;;;;;5063386;28;20051;-73
2023/08/26 02:51:03;;;;;;;5.78;2.63;;;;;;;;;;5060804;28;20059;-73
2023/08/26 02:53:34;;;;;;;7.88;3.00;;;;;;;;;;5063315;28;20056;-73
2023/08/26 02:56:04;;;;;;;7.75;2.20;;;;;;;;;;5062904;28;20052;-73
2023/08/26 02:58:36;;;;;;;5.38;2.28;;;;;;;;;;5062841;28;20052;-73
2023/08/26 03:01:07;;;;;;;4.38;2.13;;;;;;;;;;5060873;28;20056;-73
2023/08/26 03:03:38;;;;;;;3.60;1.80;;;;;;;;;;5062215;28;20045;-73
2023/08/26 03:06:08;;;;;;;6.70;2.28;;;;;;;;;;5062910;28;20050;-73
2023/08/26 03:08:42;;;;;;;6.57;1.42;;;;;;;;;;5062964;28;20512;-73
2023/08/26 03:11:13;;;;;;;6.32;2.00;;;;;;;;;;5061281;28;20063;-73
2023/08/26 03:13:44;;;;;;;3.05;1.45;;;;;;;;;;5060932;28;20545;-73
2023/08/26 03:16:16;;;;;;;2.38;1.40;;;;;;;;;;5061543;28;20040;-73
2023/08/26 03:18:47;;;;;;;2.20;1.00;;;;;;;;;;5060691;28;20056;-73
2023/08/26 03:21:18;;;;;;;2.72;1.38;;;;;;;;;;5062073;28;20052;-73
2023/08/26 03:23:48;;;;;;;2.63;1.25;;;;;;;;;;5061829;28;20049;-73
2023/08/26 03:26:19;;;;;;;4.07;1.10;;;;;;;;;;5060919;28;20060;-73
2023/08/26 03:28:50;;;;;;;2.15;1.40;;;;;;;;;;5061548;28;20056;-73
2023/08/26 03:31:21;;;;;;;1.35;1.00;;;;;;;;;;5062051;28;20052;-73
2023/08/26 03:33:51;;;;;;;1.75;0.90;;;;;;;;;;5062369;28;20049;-73
2023/08/26 03:36:23;;;;;;;2.65;0.63;;;;;;;;;;5062091;28;20059;-73
2023/08/26 03:38:55;;;;;;;1.83;0.68;;;;;;;;;;5060200;28;20860;-73
2023/08/26 03:41:26;;;;;;;5.32;0.90;;;;;;;;;;5060428;28;20613;-73
2023/08/26 03:43:56;;;;;;;2.50;0.70;;;;;;;;;;5062849;28;20419;-73
2023/08/26 03:46:28;;;;;;;1.45;0.95;;;;;;;;;;5061021;28;20052;-73
2023/08/26 03:48:59;;;;;;;2.38;1.20;;;;;;;;;;5062107;28;20055;-73
2023/08/26 03:51:30;;;;;;;3.38;0.85;;;;;;;;;;5061381;28;20791;-73
2023/08/26 03:54:01;;;;;;;1.25;0.73;;;;;;;;;;5061561;28;20131;-73
2023/08/26 03:56:32;;;;;;;1.23;0.80;;;;;;;;;;5059084;28;20055;-73
2023/08/26 03:59:04;;;;;;;0.73;0.47;;;;;;;;;;5061826;28;20055;-73
2023/08/26 04:01:35;;;;;;;1.48;0.80;;;;;;;;;;5061400;28;20052;-73
2023/08/26 04:04:07;;;;;;;0.95;0.57;;;;;;;;;;5061428;28;20080;-73
2023/08/26 04:06:39;;;;;;;7.50;1.05;;;;;;;;;;5059738;28;20048;-73
2023/08/26 04:09:10;;;;;;;1.80;1.10;;;;;;;;;;5059792;28;20051;-73
2023/08/26 04:11:47;;;;;;;2.15;1.15;;;;;;;;;;5060528;28;20041;-73
2023/08/26 04:14:18;;;;;;;2.50;1.90;;;;;;;;;;5043927;28;20056;-74
2023/08/26 04:16:50;;;;;;;2.35;1.13;;;;;;;;;;5044105;28;20057;-73
2023/08/26 04:19:21;;;;;;;1.80;1.13;;;;;;;;;;5060214;28;20059;-73
2023/08/26 04:21:52;;;;;;;3.60;1.00;;;;;;;;;;5061067;28;20062;-73
2023/08/26 04:24:23;;;;;;;1.45;1.00;;;;;;;;;;5061725;28;20049;-73
2023/08/26 04:26:54;;;;;;;4.40;1.02;;;;;;;;;;5060040;28;20052;-72
2023/08/26 04:29:25;;;;;;;3.78;1.00;;;;;;;;;;5061148;28;20052;-72
2023/08/26 04:31:56;;;;;;;2.15;1.00;;;;;;;;;;5059881;28;20056;-72
2023/08/26 04:34:28;;;;;;;3.17;1.38;;;;;;;;;;5060158;28;20055;-72
2023/08/26 04:36:58;;;;;;;1.35;0.80;;;;;;;;;;5061682;28;20592;-72
2023/08/26 04:39:29;;;;;;;1.73;1.10;;;;;;;;;;5061244;28;20045;-71
2023/08/26 04:42:01;;;;;;;1.92;0.75;;;;;;;;;;5061535;28;20059;-72
2023/08/26 04:44:31;;;;;;;2.10;1.10;;;;;;;;;;5059696;28;20057;-72
2023/08/26 04:47:02;;;;;;;1.67;0.70;;;;;;;;;;5061179;28;20053;-76
2023/08/26 04:49:33;;;;;;;1.80;1.20;;;;;;;;;;5059613;28;20055;-72
2023/08/26 04:52:04;;;;;;;2.80;0.93;;;;;;;;;;5059100;28;20529;-71
2023/08/26 04:54:35;;;;;;;1.33;1.00;;;;;;;;;;5061604;28;20045;-72
2023/08/26 04:57:05;;;;;;;;;;;;;;;;;;5043964;28;20909;-72
2023/08/26 04:59:37;;;;;;;1.02;0.80;;;;;;;;;;5061123;28;20300;-72
2023/08/26 05:02:09;;;;;;;0.80;0.70;;;;;;;;;;5059831;28;20057;-72
2023/08/26 05:04:40;;;;;;;4.10;1.05;;;;;;;;;;5059878;28;20044;-72
2023/08/26 05:07:11;;;;;;;1.63;0.65;;;;;;;;;;5061122;28;20060;-71
2023/08/26 05:09:42;;;;;;;1.45;1.00;;;;;;;;;;5063325;28;20056;-72
2023/08/26 05:12:13;;;;;;;2.97;1.00;;;;;;;;;;5063244;28;20063;-72
2023/08/26 05:14:45;;;;;;;1.23;0.70;;;;;;;;;;5064298;28;20538;-72
2023/08/26 05:17:16;;;;;;;2.10;0.90;;;;;;;;;;5062716;28;20349;-72
2023/08/26 05:19:47;;;;;;;0.85;0.70;;;;;;;;;;5064744;28;20403;-72
2023/08/26 05:22:21;;;;;;;1.42;0.93;;;;;;;;;;5062719;28;20895;-72
2023/08/26 05:24:51;;;;;;;0.82;0.77;;;;;;;;;;5064408;28;20063;-72
2023/08/26 05:27:23;;;;;;;1.80;1.00;;;;;;;;;;5062183;28;20515;-72
2023/08/26 05:29:54;;;;;;;1.25;0.75;;;;;;;;;;5062684;28;20403;-72
2023/08/26 05:32:27;;;;;;;1.13;0.63;;;;;;;;;;5062691;28;20067;-72
2023/08/26 05:34:58;;;;;;;1.35;0.90;;;;;;;;;;5062869;28;20071;-72
2023/08/26 05:37:28;;;;;;;2.15;1.17;;;;;;;;;;5063942;28;20131;-75
2023/08/26 05:39:59;;;;;;;1.10;0.90;;;;;;;;;;5062972;28;20067;-72
2023/08/26 05:42:31;;;;;;;1.15;0.95;;;;;;;;;;5062939;28;20059;-72
2023/08/26 05:45:03;;;;;;;1.65;0.93;;;;;;;;;;5046730;28;20494;-72
2023/08/26 05:47:34;;;;;;;2.70;0.90;;;;;;;;;;5062400;28;20057;-72
2023/08/26 05:50:06;;;;;;;2.67;0.95;;;;;;;;;;5062343;28;20057;-72
2023/08/26 05:52:38;;;;;;;2.55;0.80;;;;;;;;;;5062094;28;20464;-72
2023/08/26 05:55:10;;;;;;;0.93;0.77;;;;;;;;;;5062307;28;20052;-72
2023/08/26 05:57:42;;;;;;;0.70;0.70;;;;;;;;;;5063387;28;20040;-72
2023/08/26 06:00:14;;;;;;;2.90;0.70;;;;;;;;;;5062060;28;20075;-72
2023/08/26 06:02:49;;;;;;;1.35;0.90;;;;;;;;;;5061727;28;20052;-72
2023/08/26 06:05:22;;;;;;;1.20;0.65;;;;;;;;;;5062129;28;20384;-72
2023/08/26 06:07:53;;;;;;;3.08;1.20;;;;;;;;;;5061639;28;20047;-71
2023/08/26 06:10:24;;;;;;;1.45;1.00;;;;;;;;;;5062400;28;20074;-72
2023/08/26 06:12:55;;;;;;;2.15;0.77;;;;;;;;;;5062485;28;20239;-72
2023/08/26 06:15:28;;;;;;;3.13;1.50;;;;;;;;;;5061337;28;20056;-71
2023/08/26 06:17:59;;;;;;;1.83;1.05;;;;;;;;;;5061919;28;20052;-72
2023/08/26 06:20:31;;;;;;;1.35;0.82;;;;;;;;;;5061257;28;20054;-72
2023/08/26 06:23:03;;;;;;;2.95;0.70;;;;;;;;;;5061893;28;20834;-72
2023/08/26 06:25:34;;;;;;;2.78;1.23;;;;;;;;;;5061976;28;20049;-72
2023/08/26 06:28:05;;;;;;;1.40;0.80;;;;;;;;;;5061799;28;20044;-72
2023/08/26 06:30:36;;;;;;;0.88;0.65;;;;;;;;;;5061049;28;20045;-71
2023/08/26 06:33:09;;;;;;;3.42;0.85;;;;;;;;;;5061482;28;20056;-72
2023/08/26 06:35:45;;;;;;;1.15;0.70;;;;;;;;;;5063823;28;20474;-71
2023/08/26 06:38:16;;;;;;;4.40;1.17;;;;;;;;;;5060985;28;20057;-72
2023/08/26 06:40:56;;;;;;;1.02;0.77;;;;;;;;;;5061416;28;20510;-72
2023/08/26 06:43:28;;;;;;;1.30;1.00;;;;;;;;;;5063130;28;20118;-72
2023/08/26 06:46:00;;;;;;;2.17;1.00;;;;;;;;;;5061239;28;20056;-72
2023/08/26 06:48:30;;;;;;;1.50;0.85;;;;;;;;;;5060893;28;21057;-72
2023/08/26 06:51:00;;;;;;;;;;;;;;;;;;5063665;28;20049;-72
2023/08/26 06:53:31;;;;;;;1.95;0.90;;;;;;;;;;5062897;28;20292;-72
2023/08/26 06:56:01;;;;;;;3.05;1.10;;;;;;;;;;5060939;28;20052;-72
2023/08/26 06:58:32;;;;;;;4.60;1.17;;;;;;;;;;5061261;28;20044;-72
2023/08/26 07:01:03;;;;;;;3.88;1.35;;;;;;;;;;5061194;28;20041;-73
2023/08/26 07:03:34;;;;;;;1.67;0.90;;;;;;;;;;5062999;28;20048;-72
2023/08/26 07:06:04;;;;;;;1.77;1.00;;;;;;;;;;5061623;28;20056;-72
2023/08/26 07:08:36;;;;;;;1.55;0.77;;;;;;;;;;5062349;28;20060;-71
2023/08/26 07:11:07;;;;;;;3.97;0.98;;;;;;;;;;5062432;28;20491;-72
2023/08/26 07:13:37;;;;;;;3.53;0.70;;;;;;;;;;5061570;28;20056;-72
2023/08/26 07:16:08;;;;;;;1.60;0.73;;;;;;;;;;5062708;28;20410;-71
2023/08/26 07:18:39;;;;;;;2.92;0.90;;;;;;;;;;5062558;28;20748;-72
2023/08/26 07:21:10;;;;;;;1.45;0.90;;;;;;;;;;5062226;28;20048;-78
2023/08/26 07:23:41;;;;;;;3.17;1.00;;;;;;;;;;5061682;28;20057;-72
2023/08/26 07:26:12;;;;;;;3.05;1.20;;;;;;;;;;5061878;28;20060;-72
2023/08/26 07:28:45;;;;;;;1.65;0.77;;;;;;;;;;5060616;28;20060;-72
2023/08/26 07:31:16;;;;;;;1.90;1.00;;;;;;;;;;5062100;28;20053;-72
2023/08/26 07:33:47;;;;;;;1.20;0.80;;;;;;;;;;5062031;28;20056;-72
2023/08/26 07:36:17;;;;;;;3.92;1.60;;;;;;;;;;5062557;28;20530;-72
2023/08/26 07:38:48;;;;;;;0.90;0.70;;;;;;;;;;5061712;28;20122;-72
2023/08/26 07:41:19;;;;;;;2.00;1.30;;;;;;;;;;5061968;28;20040;-72
2023/08/26 07:43:50;;;;;;;5.68;1.27;;;;;;;;;;5061772;28;20052;-72
2023/08/26 07:46:22;;;;;;;2.60;1.42;;;;;;;;;;5062038;28;20048;-72
2023/08/26 07:48:56;;;;;;;3.53;1.20;;;;;;;;;;5062075;28;20049;-72
2023/08/26 07:51:28;;;;;;;4.50;1.88;;;;;;;;;;5062016;28;20048;-72
2023/08/26 07:53:58;;;;;;;3.15;1.75;;;;;;;;;;5060162;28;20048;-72
2023/08/26 07:56:29;;;;;;;3.85;1.77;;;;;;;;;;5061951;28;20044;-72
2023/08/26 07:59:00;;;;;;;3.50;1.67;;;;;;;;;;5061492;28;20055;-72
2023/08/26 08:01:31;;;;;;;4.50;1.45;;;;;;;;;;5061845;28;20052;-72
2023/08/26 08:04:01;;;;;;;3.28;1.55;;;;;;;;;;5062088;28;20049;-72
2023/08/26 08:06:32;;;;;;;6.72;2.17;;;;;;;;;;5061780;28;20049;-72
2023/08/26 08:09:03;;;;;;;3.38;2.00;;;;;;;;;;5060456;28;20503;-72
2023/08/26 08:11:35;;;;;;;4.55;1.80;;;;;;;;;;5061827;28;20068;-72
2023/08/26 08:14:06;;;;;;;2.28;1.70;;;;;;;;;;5060553;28;20052;-72
2023/08/26 08:16:36;;;;;;;;;;;;;;;;;;5062839;28;20075;-72
2023/08/26 08:19:06;;;;;;;2.22;1.30;;;;;;;;;;5061520;28;19935;-72
2023/08/26 08:21:37;;;;;;;1.98;1.23;;;;;;;;;;5061243;28;20407;-72
2023/08/26 08:24:09;;;;;;;1.67;1.20;;;;;;;;;;5060626;28;20411;-72
2023/08/26 08:26:43;;;;;;;2.20;1.30;;;;;;;;;;5061117;28;20041;-72
2023/08/26 08:29:14;;;;;;;5.38;1.25;;;;;;;;;;5061054;28;20052;-72
2023/08/26 08:31:44;;;;;;;2.00;1.10;;;;;;;;;;5061028;28;20420;-72
2023/08/26 08:34:20;;;;;;;1.33;1.10;;;;;;;;;;5060960;28;20064;-72
2023/08/26 08:36:50;;;;;;;2.53;1.20;;;;;;;;;;5059229;28;20539;-71
2023/08/26 08:39:21;;;;;;;3.47;1.27;;;;;;;;;;5061649;28;20569;-72
2023/08/26 08:41:55;;;;;;;2.05;1.10;;;;;;;;;;5062211;28;20044;-72
2023/08/26 08:44:30;;;;;;;2.38;1.10;;;;;;;;;;5064816;28;20036;-72
2023/08/26 08:47:05;;;;;;;2.58;1.38;;;;;;;;;;5064867;28;20059;-72
2023/08/26 08:49:37;;;;;;;1.42;1.00;;;;;;;;;;5064432;28;20388;-72
2023/08/26 08:52:09;;;;;;;1.73;1.25;;;;;;;;;;5063701;28;20040;-71
2023/08/26 08:54:40;;;;;;;2.30;1.35;;;;;;;;;;5065168;28;20045;-72
2023/08/26 08:57:15;;;;;;;0.88;0.80;;;;;;;;;;5065326;28;20055;-72
2023/08/26 08:59:46;;;;;;;2.30;1.20;;;;;;;;;;5065035;28;20044;-72
2023/08/26 09:02:17;;;;;;;4.47;1.20;;;;;;;;;;5065224;28;20868;-72
2023/08/26 09:04:49;;;;;;;1.63;1.00;;;;;;;;;;5064564;28;20049;-71
2023/08/26 09:07:21;;;;;;;1.52;0.88;;;;;;;;;;5064848;28;20055;-72
2023/08/26 09:09:56;;;;;;;1.52;1.02;;;;;;;;;;5065106;28;20428;-71
2023/08/26 09:12:31;;;;;;;2.25;1.48;;;;;;;;;;5064439;28;20149;-72
2023/08/26 09:15:03;;;;;;;4.85;1.20;;;;;;;;;;5064284;28;20861;-72
2023/08/26 09:17:34;;;;;;;5.35;1.08;;;;;;;;;;5064753;28;20529;-71
2023/08/26 09:20:05;;;;;;;1.92;1.05;;;;;;;;;;5064854;28;20387;-72
2023/08/26 09:22:36;;;;;;;8.13;1.85;;;;;;;;;;5064056;28;20052;-72
2023/08/26 09:25:08;;;;;;;7.63;1.42;;;;;;;;;;5064229;28;20048;-71
2023/08/26 09:27:45;;;;;;;1.88;1.00;;;;;;;;;;5064355;28;20404;-72
2023/08/26 09:30:21;;;;;;;1.98;1.15;;;;;;;;;;5064603;28;20060;-72
2023/08/26 09:32:56;;;;;;;3.10;0.95;;;;;;;;;;5064750;28;20049;-72
2023/08/26 09:35:26;;;;;;;7.60;1.38;;;;;;;;;;5064728;28;20099;-71
2023/08/26 09:38:00;;;;;;;2.58;1.10;;;;;;;;;;5062346;28;20068;-72
2023/08/26 09:40:30;;;;;;;2.10;1.27;;;;;;;;;;5063717;28;20049;-72
2023/08/26 09:43:06;;;;;;;2.75;1.40;;;;;;;;;;5063954;28;20075;-72
2023/08/26 09:45:38;;;;;;;1.30;0.90;;;;;;;;;;5063902;28;20060;-72
2023/08/26 09:48:09;;;;;;;1.33;0.80;;;;;;;;;;5063903;28;20075;-72
2023/08/26 09:50:39;;;;;;;2.83;0.93;;;;;;;;;;5064245;28;20063;-71
2023/08/26 09:53:10;;;;;;;1.15;0.88;;;;;;;;;;5061626;28;20522;-71
2023/08/26 09:55:41;;;;;;;5.32;1.60;;;;;;;;;;5063581;28;20472;-72
2023/08/26 09:58:12;;;;;;;2.83;1.55;;;;;;;;;;5063593;28;20056;-72
2023/08/26 10:00:47;;;;;;;1.30;1.02;;;;;;;;;;5062470;28;20496;-72
2023/08/26 10:03:24;;;;;;;3.78;1.27;;;;;;;;;;5064333;28;20370;-72
2023/08/26 10:06:00;;;;;;;3.65;1.90;;;;;;;;;;5064042;28;20047;-72
2023/08/26 10:08:35;;;;;;;3.03;1.45;;;;;;;;;;5062019;28;20051;-72
2023/08/26 10:11:09;;;;;;;2.08;1.45;;;;;;;;;;5063380;28;20052;-72
2023/08/26 10:13:43;;;;;;;2.95;1.30;;;;;;;;;;5062176;28;20514;-72
2023/08/26 10:16:18;;;;;;;4.28;2.08;;;;;;;;;;5063522;28;20047;-72
2023/08/26 10:19:03;;;;;;;3.63;1.50;;;;;;;;;;5063221;28;20621;-72
2023/08/26 10:21:35;;;;;;;3.03;1.92;;;;;;;;;;5063710;28;20079;-72
2023/08/26 10:24:07;;;;;;;2.78;1.48;;;;;;;;;;5062977;28;20041;-72
2023/08/26 10:26:38;;;;;;;4.70;1.40;;;;;;;;;;5063945;28;20052;-72
2023/08/26 10:29:08;;;;;;;4.30;1.50;;;;;;;;;;5063608;28;20041;-72
2023/08/26 10:31:42;;;;;;;7.25;2.28;;;;;;;;;;5063147;28;20660;-78
2023/08/26 10:34:16;;;;;;;3.33;1.67;;;;;;;;;;5063994;28;20490;-77
2023/08/26 10:36:49;;;;;;;3.25;1.55;;;;;;;;;;5063389;28;20495;-78
2023/08/26 10:39:20;;;;;;;2.63;1.67;;;;;;;;;;5061056;28;20044;-76
2023/08/26 10:42:12;;;;;;;4.13;1.63;;;;;;;;;;5061872;28;20511;-73
2023/08/26 10:44:48;;;;;;;7.70;1.67;;;;;;;;;;5061609;28;20064;-73
2023/08/26 10:47:41;;;;;;;9.18;1.15;;;;;;;;;;5060772;28;20043;-73
2023/08/26 10:50:29;;;;;;;9.35;2.00;;;;;;;;;;5061381;28;20045;-73
2023/08/26 10:53:12;;;;;;;2.22;1.48;;;;;;;;;;5061720;28;20503;-73
2023/08/26 10:55:47;;;;;;;3.40;1.88;;;;;;;;;;5062464;28;20049;-73
2023/08/26 10:58:22;;;;;;;2.65;1.42;;;;;;;;;;5062680;28;20064;-72
2023/08/26 11:00:53;;;;;;;10.02;1.88;;;;;;;;;;5062596;28;20048;-72
2023/08/26 11:03:24;;;;;;;17.95;2.78;;;;;;;;;;5062798;28;20048;-72
2023/08/26 11:06:03;;;;;;;5.20;1.67;;;;;;;;;;5062169;28;20056;-72
2023/08/26 11:08:36;;;;;;;1.92;1.50;;;;;;;;;;5062665;28;20071;-73
2023/08/26 11:11:12;;;;;;;2.28;1.67;;;;;;;;;;5062356;28;20055;-73
2023/08/26 11:13:42;;;;;;;1.88;1.25;;;;;;;;;;5062348;28;20051;-73
2023/08/26 11:16:14;;;;;;;6.18;2.38;;;;;;;;;;5062297;28;20053;-72
2023/08/26 11:18:47;;;;;;;5.00;2.33;;;;;;;;;;5062733;28;20049;-73
2023/08/26 11:21:17;;;;;;;7.10;2.38;;;;;;;;;;5062320;28;20048;-73
2023/08/26 11:23:48;;;;;;;2.92;1.50;;;;;;;;;;5062265;28;20060;-74
2023/08/26 11:26:23;;;;;;;5.50;1.90;;;;;;;;;;5061401;28;20067;-74
2023/08/26 11:28:54;;;;;;;5.07;1.50;;;;;;;;;;5062828;28;20040;-74
2023/08/26 11:31:25;;;;;;;20.08;2.97;;;;;;;;;;5062340;28;20048;-73
2023/08/26 11:33:56;;;;;;;3.72;1.58;;;;;;;;;;5060090;28;20060;-74
2023/08/26 11:36:28;;;;;;;3.95;2.28;;;;;;;;;;5062001;28;20044;-74
2023/08/26 11:38:59;;;;;;;8.10;6.90;;;;;;;;;;5062153;28;20087;-77
2023/08/26 11:41:29;;;;;;;3.03;1.90;;;;;;;;;;5061997;28;20048;-74
2023/08/26 11:43:59;;;;;;;11.50;3.72;;;;;;;;;;5062218;28;20052;-74
2023/08/26 11:46:30;;;;;;;4.38;2.00;;;;;;;;;;5061205;28;20502;-74
2023/08/26 11:49:01;;;;;;;5.53;1.75;;;;;;;;;;5062090;28;20055;-73
2023/08/26 11:51:32;;;;;;;7.45;3.10;;;;;;;;;;5060484;28;20051;-76
2023/08/26 11:54:02;;;;;;;3.33;1.75;;;;;;;;;;5062079;28;20095;-78
2023/08/26 11:56:32;;;;;;;3.13;2.00;;;;;;;;;;5062299;28;20048;-73
2023/08/26 11:59:03;;;;;;;9.07;2.78;;;;;;;;;;5060166;28;20048;-73
2023/08/26 12:01:36;;;;;;;5.05;2.15;;;;;;;;;;5062155;28;20476;-74
2023/08/26 12:04:21;;;;;;;6.22;2.20;;;;;;;;;;5061850;28;20598;-73
2023/08/26 12:06:52;;;;;;;4.88;2.30;;;;;;;;;;5061838;28;20684;-73
2023/08/26 12:09:22;;;;;;;3.70;2.03;;;;;;;;;;5061685;28;20041;-75
2023/08/26 12:11:53;;;;;;;8.60;2.60;;;;;;;;;;5061763;28;20040;-74
2023/08/26 12:14:24;;;;;;;5.45;2.42;;;;;;;;;;5061554;28;20450;-74
2023/08/26 12:17:03;;;;;;;9.85;5.72;;;;;;;;;;5059282;28;20439;-73
2023/08/26 12:19:34;;;;;;;5.60;3.00;;;;;;;;;;5065146;28;20052;-74
2023/08/26 12:22:07;;;;;;;6.32;2.70;;;;;;;;;;5064784;28;20060;-73
2023/08/26 12:24:39;;;;;;;6.97;2.85;;;;;;;;;;5065500;28;20055;-74
2023/08/26 12:27:10;;;;;;;4.63;2.33;;;;;;;;;;5065928;28;20423;-75
2023/08/26 12:29:41;;;;;;;4.82;3.10;;;;;;;;;;5066526;28;20045;-73
2023/08/26 12:32:11;;;;;;;4.35;3.03;;;;;;;;;;5065556;28;20044;-74
2023/08/26 12:34:43;;;;;;;4.90;2.92;;;;;;;;;;5065491;28;20049;-73
2023/08/26 12:37:14;;;;;;;8.75;3.47;;;;;;;;;;5065591;28;20052;-75
2023/08/26 12:39:44;;;;;;;7.28;3.97;;;;;;;;;;5065862;28;20049;-73
2023/08/26 12:42:16;;;;;;;9.13;3.35;;;;;;;;;;5064320;28;20052;-75
2023/08/26 12:44:46;;;;;;;4.93;3.10;;;;;;;;;;5065128;28;20052;-74
2023/08/26 12:47:18;;;;;;;6.03;3.10;;;;;;;;;;5063681;28;20064;-74
2023/08/26 12:49:48;;;;;;;6.43;2.90;;;;;;;;;;5065656;28;20048;-74
2023/08/26 12:52:18;;;;;;;4.97;3.63;;;;;;;;;;5065085;28;20067;-77
2023/08/26 12:54:49;;;;;;;5.75;3.08;;;;;;;;;;5063845;28;20518;-75
2023/08/26 12:57:19;;;;;;;5.82;3.25;;;;;;;;;;5064622;28;20044;-74
2023/08/26 12:59:49;;;;;;;8.77;4.22;;;;;;;;;;5064822;28;20432;-76
2023/08/26 13:02:20;;;;;;;5.20;3.22;;;;;;;;;;5063565;28;20064;-74
2023/08/26 13:04:51;;;;;;;7.13;3.63;;;;;;;;;;5062993;28;20514;-74
2023/08/26 13:07:21;;;;;;;9.48;3.60;;;;;;;;;;5063167;28;20049;-74
2023/08/26 13:09:51;;;;;;;7.80;4.40;;;;;;;;;;5063357;28;20577;-75
2023/08/26 13:12:22;;;;;;;6.03;3.10;;;;;;;;;;5064985;28;20049;-74
2023/08/26 13:14:52;;;;;;;4.45;3.10;;;;;;;;;;5065136;28;20052;-75
2023/08/26 13:17:23;;;;;;;6.97;3.47;;;;;;;;;;5064849;28;20048;-74
2023/08/26 13:19:58;;;;;;;5.95;3.35;;;;;;;;;;5066088;28;20658;-74
2023/08/26 13:22:28;;;;;;;8.82;3.40;;;;;;;;;;5064581;28;20057;-74
2023/08/26 13:24:58;;;;;;;3.58;2.58;;;;;;;;;;5064662;28;20052;-74
2023/08/26 13:27:30;;;;;;;9.95;3.20;;;;;;;;;;5064545;28;20913;-75
2023/08/26 13:30:01;;;;;;;6.47;2.80;;;;;;;;;;5063767;28;20041;-75
2023/08/26 13:32:31;;;;;;;4.05;3.22;;;;;;;;;;5064604;28;20041;-73
2023/08/26 13:35:07;;;;;;;;;;;;;;;;;;5063204;28;20056;-75
2023/08/26 13:37:37;;;;;;;9.45;2.50;;;;;;;;;;5064245;28;19920;-77
2023/08/26 13:40:09;;;;;;;6.15;3.08;;;;;;;;;;5064527;28;20056;-75
2023/08/26 13:42:38;;;;;;;4.15;2.72;;;;;;;;;;5064682;28;20055;-75
2023/08/26 13:45:09;;;;;;;3.50;2.50;;;;;;;;;;5063766;28;20057;-74
2023/08/26 13:47:41;;;;;;;5.30;2.53;;;;;;;;;;5064091;28;20044;-74
2023/08/26 13:50:11;;;;;;;3.33;2.30;;;;;;;;;;5065056;28;20040;-76
2023/08/26 13:52:43;;;;;;;8.27;2.25;;;;;;;;;;5064533;28;20048;-75
2023/08/26 13:55:13;;;;;;;12.93;11.20;;;;;;;;;;5062880;28;20063;-75
2023/08/26 13:57:44;;;;;;;2.63;2.17;;;;;;;;;;5064131;28;20052;-74
2023/08/26 14:00:15;;;;;;;12.05;2.53;;;;;;;;;;5064328;28;20053;-79
2023/08/26 14:02:46;;;;;;;4.72;2.10;;;;;;;;;;5068243;28;20053;-74
2023/08/26 14:05:16;;;;;;;4.30;2.30;;;;;;;;;;5063505;28;20562;-76
2023/08/26 14:07:50;;;;;;;3.60;2.33;;;;;;;;;;5062264;28;20664;-74
2023/08/26 14:10:21;;;;;;;13.68;2.90;;;;;;;;;;5062031;28;20056;-74
2023/08/26 14:12:52;;;;;;;3.88;2.28;;;;;;;;;;5064317;28;20487;-77
2023/08/26 14:15:23;;;;;;;4.47;2.00;;;;;;;;;;5063388;28;20071;-75
2023/08/26 14:17:54;;;;;;;4.20;2.50;;;;;;;;;;5063697;28;20059;-74
2023/08/26 14:20:25;;;;;;;4.88;2.13;;;;;;;;;;5064037;28;20777;-74
2023/08/26 14:22:55;;;;;;;4.55;1.75;;;;;;;;;;5061421;28;20052;-74
2023/08/26 14:25:25;;;;;;;4.18;2.35;;;;;;;;;;5063882;28;20056;-75
2023/08/26 14:27:57;;;;;;;6.53;2.45;;;;;;;;;;5062893;28;20048;-75
2023/08/26 14:30:29;;;;;;;3.70;2.22;;;;;;;;;;5063136;28;20535;-77
2023/08/26 14:33:00;;;;;;;7.53;1.92;;;;;;;;;;5062885;28;20051;-75
2023/08/26 14:35:30;;;;;;;6.90;2.05;;;;;;;;;;5062618;28;21229;-75
2023/08/26 14:38:03;;;;;;;6.13;2.05;;;;;;;;;;5060992;28;20056;-75
2023/08/26 14:40:34;;;;;;;8.30;2.50;;;;;;;;;;5061856;28;20053;-75
2023/08/26 14:43:04;;;;;;;2.95;1.83;;;;;;;;;;5063309;28;20047;-77
2023/08/26 14:45:34;;;;;;;3.03;2.10;;;;;;;;;;5062926;28;20056;-75
2023/08/26 14:48:05;;;;;;;3.70;2.10;;;;;;;;;;5063007;28;20848;-74
2023/08/26 14:50:36;;;;;;;6.97;2.45;;;;;;;;;;5063033;28;20063;-75
2023/08/26 14:53:08;;;;;;;3.53;1.90;;;;;;;;;;5063469;28;20056;-74
2023/08/26 14:55:41;;;;;;;3.63;2.00;;;;;;;;;;5063116;28;20044;-74
2023/08/26 14:58:12;;;;;;;4.95;2.08;;;;;;;;;;5063148;28;20078;-74
2023/08/26 15:00:42;;;;;;;1.90;1.70;;;;;;;;;;5062620;28;20071;-75
2023/08/26 15:03:13;;;;;;;6.22;2.30;;;;;;;;;;5062471;28;20044;-75
2023/08/26 15:05:56;;;;;;;4.90;2.05;;;;;;;;;;5060950;28;20056;-73
2023/08/26 15:08:28;;;;;;;6.55;2.10;;;;;;;;;;5062619;28;20044;-73
2023/08/26 15:10:59;;;;;;;2.88;1.73;;;;;;;;;;5062651;28;20044;-74